sensor_id;sensor_type;location;lat;lon;timestamp;P1;durP1;ratioP1;P2;durP2;ratioP2
11111;SDS011;5609;49.466;8.468;2024-03-25T00:02:17;4.10;;;2.90;;
11111;SDS011;5609;49.466;8.468;2024-03-25T00:04:43;4.60;;;3.10;;
11111;SDS011;5609;49.466;8.468;2024-03-25T00:07:11;5.57;;;3.30;;
11111;SDS011;5609;49.466;8.468;2024-03-25T00:09:37;5.23;;;3.10;;
11111;SDS011;5609;49.466;8.468;2024-03-25T00:12:04;3.60;;;2.70;;
11111;SDS011;5609;49.466;8.468;2024-03-25T00:14:30;4.83;;;2.80;;
11111;SDS011;5609;49.466;8.468;2024-03-25T00:16:57;3.33;;;2.63;;
11111;SDS011;5609;49.466;8.468;2024-03-25T00:19:23;4.37;;;2.80;;
11111;SDS011;5609;49.466;8.468;2024-03-25T00:21:50;4.17;;;3.10;;
11111;SDS011;5609;49.466;8.468;2024-03-25T00:24:17;3.37;;;2.67;;
11111;SDS011;5609;49.466;8.468;2024-03-25T00:26:45;4.60;;;2.90;;
11111;SDS011;5609;49.466;8.468;2024-03-25T00:29:10;3.43;;;2.70;;
11111;SDS011;5609;49.466;8.468;2024-03-25T00:31:39;4.80;;;2.70;;
11111;SDS011;5609;49.466;8.468;2024-03-25T00:34:05;5.40;;;3.20;;
11111;SDS011;5609;49.466;8.468;2024-03-25T00:36:32;4.97;;;3.20;;
11111;SDS011;5609;49.466;8.468;2024-03-25T00:38:58;3.23;;;2.90;;
11111;SDS011;5609;49.466;8.468;2024-03-25T00:41:27;3.70;;;2.87;;
11111;SDS011;5609;49.466;8.468;2024-03-25T00:43:53;3.63;;;2.90;;
11111;SDS011;5609;49.466;8.468;2024-03-25T00:46:21;4.63;;;3.03;;
11111;SDS011;5609;49.466;8.468;2024-03-25T00:48:46;4.93;;;3.20;;
11111;SDS011;5609;49.466;8.468;2024-03-25T00:51:13;5.23;;;3.10;;
11111;SDS011;5609;49.466;8.468;2024-03-25T00:53:40;5.17;;;3.07;;
11111;SDS011;5609;49.466;8.468;2024-03-25T00:56:05;3.67;;;3.00;;
11111;SDS011;5609;49.466;8.468;2024-03-25T01:01:17;5.00;;;3.03;;
11111;SDS011;5609;49.466;8.468;2024-03-25T01:03:46;4.17;;;3.20;;
11111;SDS011;5609;49.466;8.468;2024-03-25T01:06:13;5.17;;;3.50;;
11111;SDS011;5609;49.466;8.468;2024-03-25T01:08:39;5.73;;;3.23;;
11111;SDS011;5609;49.466;8.468;2024-03-25T01:11:06;4.87;;;3.03;;
11111;SDS011;5609;49.466;8.468;2024-03-25T01:13:33;4.17;;;3.17;;
11111;SDS011;5609;49.466;8.468;2024-03-25T01:16:00;5.53;;;4.23;;
11111;SDS011;5609;49.466;8.468;2024-03-25T01:18:27;8.07;;;5.40;;
11111;SDS011;5609;49.466;8.468;2024-03-25T01:20:53;8.57;;;5.30;;
11111;SDS011;5609;49.466;8.468;2024-03-25T01:23:20;10.27;;;5.37;;
11111;SDS011;5609;49.466;8.468;2024-03-25T01:25:46;11.77;;;6.40;;
11111;SDS011;5609;49.466;8.468;2024-03-25T01:28:13;11.37;;;6.07;;
11111;SDS011;5609;49.466;8.468;2024-03-25T01:30:39;9.47;;;5.73;;
11111;SDS011;5609;49.466;8.468;2024-03-25T01:33:07;12.23;;;5.03;;
11111;SDS011;5609;49.466;8.468;2024-03-25T01:35:33;8.90;;;4.27;;
11111;SDS011;5609;49.466;8.468;2024-03-25T01:38:00;10.27;;;5.00;;
11111;SDS011;5609;49.466;8.468;2024-03-25T01:40:26;7.27;;;4.10;;
11111;SDS011;5609;49.466;8.468;2024-03-25T01:42:56;6.37;;;4.00;;
11111;SDS011;5609;49.466;8.468;2024-03-25T01:45:22;7.43;;;3.93;;
11111;SDS011;5609;49.466;8.468;2024-03-25T01:47:49;5.80;;;4.13;;
11111;SDS011;5609;49.466;8.468;2024-03-25T01:50:16;6.67;;;3.93;;
11111;SDS011;5609;49.466;8.468;2024-03-25T01:52:48;7.27;;;4.03;;
11111;SDS011;5609;49.466;8.468;2024-03-25T01:55:15;7.67;;;4.30;;
11111;SDS011;5609;49.466;8.468;2024-03-25T01:57:44;9.50;;;5.20;;
11111;SDS011;5609;49.466;8.468;2024-03-25T02:00:11;11.63;;;5.90;;
11111;SDS011;5609;49.466;8.468;2024-03-25T02:02:41;11.70;;;5.70;;
11111;SDS011;5609;49.466;8.468;2024-03-25T02:05:09;11.53;;;5.67;;
11111;SDS011;5609;49.466;8.468;2024-03-25T02:07:39;8.90;;;5.93;;
11111;SDS011;5609;49.466;8.468;2024-03-25T02:10:07;8.33;;;5.67;;
11111;SDS011;5609;49.466;8.468;2024-03-25T02:12:35;9.63;;;5.13;;
11111;SDS011;5609;49.466;8.468;2024-03-25T02:15:01;7.57;;;5.57;;
11111;SDS011;5609;49.466;8.468;2024-03-25T02:17:29;7.57;;;5.40;;
11111;SDS011;5609;49.466;8.468;2024-03-25T02:19:55;6.93;;;4.33;;
11111;SDS011;5609;49.466;8.468;2024-03-25T02:22:22;7.90;;;4.10;;
11111;SDS011;5609;49.466;8.468;2024-03-25T02:24:49;6.63;;;4.03;;
11111;SDS011;5609;49.466;8.468;2024-03-25T02:27:20;5.17;;;4.20;;
11111;SDS011;5609;49.466;8.468;2024-03-25T02:29:45;7.20;;;4.30;;
11111;SDS011;5609;49.466;8.468;2024-03-25T02:32:12;7.23;;;4.50;;
11111;SDS011;5609;49.466;8.468;2024-03-25T02:34:38;5.13;;;4.63;;
11111;SDS011;5609;49.466;8.468;2024-03-25T02:37:07;5.77;;;4.97;;
11111;SDS011;5609;49.466;8.468;2024-03-25T02:39:33;10.07;;;5.00;;
11111;SDS011;5609;49.466;8.468;2024-03-25T02:42:00;6.90;;;4.93;;
11111;SDS011;5609;49.466;8.468;2024-03-25T02:44:27;7.43;;;5.37;;
11111;SDS011;5609;49.466;8.468;2024-03-25T02:46:55;8.70;;;6.23;;
11111;SDS011;5609;49.466;8.468;2024-03-25T02:49:22;5.40;;;4.70;;
11111;SDS011;5609;49.466;8.468;2024-03-25T02:51:49;10.13;;;5.40;;
11111;SDS011;5609;49.466;8.468;2024-03-25T02:54:15;6.33;;;5.50;;
11111;SDS011;5609;49.466;8.468;2024-03-25T02:56:42;8.50;;;5.80;;
11111;SDS011;5609;49.466;8.468;2024-03-25T02:59:09;7.67;;;4.77;;
11111;SDS011;5609;49.466;8.468;2024-03-25T03:01:37;5.83;;;4.03;;
11111;SDS011;5609;49.466;8.468;2024-03-25T03:04:04;7.30;;;4.10;;
11111;SDS011;5609;49.466;8.468;2024-03-25T03:06:30;5.53;;;3.70;;
11111;SDS011;5609;49.466;8.468;2024-03-25T03:08:56;6.37;;;3.77;;
11111;SDS011;5609;49.466;8.468;2024-03-25T03:11:23;6.40;;;3.93;;
11111;SDS011;5609;49.466;8.468;2024-03-25T03:13:48;7.23;;;4.07;;
11111;SDS011;5609;49.466;8.468;2024-03-25T03:16:15;6.57;;;4.03;;
11111;SDS011;5609;49.466;8.468;2024-03-25T03:18:42;3.97;;;3.40;;
11111;SDS011;5609;49.466;8.468;2024-03-25T03:21:10;4.80;;;3.87;;
11111;SDS011;5609;49.466;8.468;2024-03-25T03:23:35;5.00;;;3.73;;
11111;SDS011;5609;49.466;8.468;2024-03-25T03:26:02;6.70;;;4.00;;
11111;SDS011;5609;49.466;8.468;2024-03-25T03:28:28;5.00;;;3.50;;
11111;SDS011;5609;49.466;8.468;2024-03-25T03:30:54;5.17;;;3.73;;
11111;SDS011;5609;49.466;8.468;2024-03-25T03:33:20;5.47;;;3.60;;
11111;SDS011;5609;49.466;8.468;2024-03-25T03:35:48;5.63;;;3.70;;
11111;SDS011;5609;49.466;8.468;2024-03-25T03:38:14;6.73;;;3.70;;
11111;SDS011;5609;49.466;8.468;2024-03-25T03:40:41;5.87;;;3.83;;
11111;SDS011;5609;49.466;8.468;2024-03-25T03:43:07;5.10;;;3.80;;
11111;SDS011;5609;49.466;8.468;2024-03-25T03:45:33;5.87;;;3.90;;
11111;SDS011;5609;49.466;8.468;2024-03-25T03:47:59;6.27;;;4.57;;
11111;SDS011;5609;49.466;8.468;2024-03-25T03:50:26;5.67;;;4.23;;
11111;SDS011;5609;49.466;8.468;2024-03-25T03:52:53;6.23;;;4.20;;
11111;SDS011;5609;49.466;8.468;2024-03-25T03:55:20;6.73;;;4.70;;
11111;SDS011;5609;49.466;8.468;2024-03-25T03:57:46;5.77;;;4.50;;
11111;SDS011;5609;49.466;8.468;2024-03-25T04:00:19;5.97;;;4.27;;
11111;SDS011;5609;49.466;8.468;2024-03-25T04:02:45;6.17;;;4.50;;
11111;SDS011;5609;49.466;8.468;2024-03-25T04:05:12;5.23;;;4.73;;
11111;SDS011;5609;49.466;8.468;2024-03-25T04:07:38;6.47;;;5.00;;
11111;SDS011;5609;49.466;8.468;2024-03-25T04:10:07;7.10;;;4.90;;
11111;SDS011;5609;49.466;8.468;2024-03-25T04:12:33;6.93;;;4.90;;
11111;SDS011;5609;49.466;8.468;2024-03-25T04:15:06;7.13;;;5.13;;
11111;SDS011;5609;49.466;8.468;2024-03-25T04:17:42;7.47;;;4.97;;
11111;SDS011;5609;49.466;8.468;2024-03-25T04:20:10;5.80;;;4.67;;
11111;SDS011;5609;49.466;8.468;2024-03-25T04:22:36;7.63;;;5.00;;
11111;SDS011;5609;49.466;8.468;2024-03-25T04:25:08;6.40;;;4.87;;
11111;SDS011;5609;49.466;8.468;2024-03-25T04:27:36;7.77;;;5.00;;
11111;SDS011;5609;49.466;8.468;2024-03-25T04:30:03;6.30;;;4.60;;
11111;SDS011;5609;49.466;8.468;2024-03-25T04:32:29;5.63;;;5.03;;
11111;SDS011;5609;49.466;8.468;2024-03-25T04:34:56;6.70;;;4.60;;
11111;SDS011;5609;49.466;8.468;2024-03-25T04:37:22;7.90;;;5.23;;
11111;SDS011;5609;49.466;8.468;2024-03-25T04:39:48;6.40;;;5.27;;
11111;SDS011;5609;49.466;8.468;2024-03-25T04:42:20;7.13;;;5.43;;
11111;SDS011;5609;49.466;8.468;2024-03-25T04:44:47;8.47;;;5.93;;
11111;SDS011;5609;49.466;8.468;2024-03-25T04:47:13;12.23;;;5.87;;
11111;SDS011;5609;49.466;8.468;2024-03-25T04:49:39;7.90;;;6.00;;
11111;SDS011;5609;49.466;8.468;2024-03-25T04:52:05;7.80;;;5.43;;
11111;SDS011;5609;49.466;8.468;2024-03-25T04:54:31;6.37;;;5.23;;
11111;SDS011;5609;49.466;8.468;2024-03-25T04:56:56;8.47;;;5.87;;
11111;SDS011;5609;49.466;8.468;2024-03-25T04:59:24;9.37;;;5.87;;
11111;SDS011;5609;49.466;8.468;2024-03-25T05:01:49;8.10;;;5.87;;
11111;SDS011;5609;49.466;8.468;2024-03-25T05:04:15;7.97;;;5.67;;
11111;SDS011;5609;49.466;8.468;2024-03-25T05:06:41;6.70;;;5.93;;
11111;SDS011;5609;49.466;8.468;2024-03-25T05:09:07;7.57;;;5.77;;
11111;SDS011;5609;49.466;8.468;2024-03-25T05:11:32;8.70;;;5.93;;
11111;SDS011;5609;49.466;8.468;2024-03-25T05:13:59;7.43;;;5.97;;
11111;SDS011;5609;49.466;8.468;2024-03-25T05:16:28;9.07;;;5.97;;
11111;SDS011;5609;49.466;8.468;2024-03-25T05:18:54;7.57;;;5.97;;
11111;SDS011;5609;49.466;8.468;2024-03-25T05:21:20;7.87;;;5.97;;
11111;SDS011;5609;49.466;8.468;2024-03-25T05:23:45;7.70;;;5.47;;
11111;SDS011;5609;49.466;8.468;2024-03-25T05:26:11;8.20;;;5.87;;
11111;SDS011;5609;49.466;8.468;2024-03-25T05:28:37;7.70;;;6.23;;
11111;SDS011;5609;49.466;8.468;2024-03-25T05:31:06;9.20;;;6.20;;
11111;SDS011;5609;49.466;8.468;2024-03-25T05:33:34;8.67;;;6.00;;
11111;SDS011;5609;49.466;8.468;2024-03-25T05:36:00;8.77;;;6.33;;
11111;SDS011;5609;49.466;8.468;2024-03-25T05:38:27;7.60;;;6.53;;
11111;SDS011;5609;49.466;8.468;2024-03-25T05:40:53;7.93;;;6.30;;
11111;SDS011;5609;49.466;8.468;2024-03-25T05:43:19;8.17;;;6.00;;
11111;SDS011;5609;49.466;8.468;2024-03-25T05:45:51;9.13;;;6.23;;
11111;SDS011;5609;49.466;8.468;2024-03-25T05:48:18;9.10;;;6.20;;
11111;SDS011;5609;49.466;8.468;2024-03-25T05:50:46;8.07;;;5.90;;
11111;SDS011;5609;49.466;8.468;2024-03-25T05:53:12;8.10;;;5.87;;
11111;SDS011;5609;49.466;8.468;2024-03-25T05:55:37;7.90;;;6.17;;
11111;SDS011;5609;49.466;8.468;2024-03-25T05:58:04;8.50;;;6.23;;
11111;SDS011;5609;49.466;8.468;2024-03-25T06:00:30;7.57;;;5.67;;
11111;SDS011;5609;49.466;8.468;2024-03-25T06:02:56;6.67;;;5.83;;
11111;SDS011;5609;49.466;8.468;2024-03-25T06:05:22;6.83;;;5.80;;
11111;SDS011;5609;49.466;8.468;2024-03-25T06:07:50;9.27;;;6.17;;
11111;SDS011;5609;49.466;8.468;2024-03-25T06:10:15;10.70;;;6.00;;
11111;SDS011;5609;49.466;8.468;2024-03-25T06:12:41;7.63;;;6.33;;
11111;SDS011;5609;49.466;8.468;2024-03-25T06:15:07;7.00;;;5.80;;
11111;SDS011;5609;49.466;8.468;2024-03-25T06:17:33;8.60;;;6.03;;
11111;SDS011;5609;49.466;8.468;2024-03-25T06:19:59;7.87;;;6.27;;
11111;SDS011;5609;49.466;8.468;2024-03-25T06:22:25;9.40;;;6.43;;
11111;SDS011;5609;49.466;8.468;2024-03-25T06:24:52;9.10;;;6.90;;
11111;SDS011;5609;49.466;8.468;2024-03-25T06:27:18;9.43;;;6.47;;
11111;SDS011;5609;49.466;8.468;2024-03-25T06:29:44;9.13;;;6.00;;
11111;SDS011;5609;49.466;8.468;2024-03-25T06:32:10;6.83;;;6.03;;
11111;SDS011;5609;49.466;8.468;2024-03-25T06:34:54;9.10;;;5.80;;
11111;SDS011;5609;49.466;8.468;2024-03-25T06:37:20;8.50;;;6.50;;
11111;SDS011;5609;49.466;8.468;2024-03-25T06:39:45;8.03;;;6.20;;
11111;SDS011;5609;49.466;8.468;2024-03-25T06:42:13;9.90;;;6.40;;
11111;SDS011;5609;49.466;8.468;2024-03-25T06:44:39;7.57;;;6.10;;
11111;SDS011;5609;49.466;8.468;2024-03-25T06:47:04;7.63;;;6.27;;
11111;SDS011;5609;49.466;8.468;2024-03-25T06:49:30;8.77;;;6.90;;
11111;SDS011;5609;49.466;8.468;2024-03-25T06:51:56;9.63;;;6.50;;
11111;SDS011;5609;49.466;8.468;2024-03-25T06:54:22;8.70;;;6.30;;
11111;SDS011;5609;49.466;8.468;2024-03-25T06:56:48;8.57;;;6.63;;
11111;SDS011;5609;49.466;8.468;2024-03-25T06:59:15;9.27;;;6.73;;
11111;SDS011;5609;49.466;8.468;2024-03-25T07:01:41;8.60;;;6.07;;
11111;SDS011;5609;49.466;8.468;2024-03-25T07:04:07;9.13;;;6.70;;
11111;SDS011;5609;49.466;8.468;2024-03-25T07:06:33;8.40;;;6.20;;
11111;SDS011;5609;49.466;8.468;2024-03-25T07:08:58;9.60;;;6.63;;
11111;SDS011;5609;49.466;8.468;2024-03-25T07:11:26;8.07;;;6.37;;
11111;SDS011;5609;49.466;8.468;2024-03-25T07:13:52;8.60;;;6.43;;
11111;SDS011;5609;49.466;8.468;2024-03-25T07:16:19;8.40;;;6.17;;
11111;SDS011;5609;49.466;8.468;2024-03-25T07:18:45;8.77;;;6.23;;
11111;SDS011;5609;49.466;8.468;2024-03-25T07:21:10;8.60;;;6.00;;
11111;SDS011;5609;49.466;8.468;2024-03-25T07:23:37;7.50;;;6.30;;
11111;SDS011;5609;49.466;8.468;2024-03-25T07:26:05;7.97;;;6.47;;
11111;SDS011;5609;49.466;8.468;2024-03-25T07:28:31;6.50;;;5.57;;
11111;SDS011;5609;49.466;8.468;2024-03-25T07:30:57;7.67;;;5.80;;
11111;SDS011;5609;49.466;8.468;2024-03-25T07:33:25;9.57;;;6.13;;
11111;SDS011;5609;49.466;8.468;2024-03-25T07:35:51;7.07;;;5.83;;
11111;SDS011;5609;49.466;8.468;2024-03-25T07:38:17;8.50;;;5.73;;
11111;SDS011;5609;49.466;8.468;2024-03-25T07:40:43;9.07;;;6.10;;
11111;SDS011;5609;49.466;8.468;2024-03-25T07:43:08;7.70;;;5.77;;
11111;SDS011;5609;49.466;8.468;2024-03-25T07:45:34;6.73;;;5.90;;
11111;SDS011;5609;49.466;8.468;2024-03-25T07:48:00;8.30;;;6.07;;
11111;SDS011;5609;49.466;8.468;2024-03-25T07:50:28;7.17;;;6.17;;
11111;SDS011;5609;49.466;8.468;2024-03-25T07:52:53;11.40;;;7.27;;
11111;SDS011;5609;49.466;8.468;2024-03-25T07:55:19;10.73;;;7.10;;
11111;SDS011;5609;49.466;8.468;2024-03-25T07:57:45;9.10;;;6.47;;
11111;SDS011;5609;49.466;8.468;2024-03-25T08:00:11;11.10;;;7.10;;
11111;SDS011;5609;49.466;8.468;2024-03-25T08:02:38;8.90;;;6.87;;
11111;SDS011;5609;49.466;8.468;2024-03-25T08:05:04;13.10;;;7.40;;
11111;SDS011;5609;49.466;8.468;2024-03-25T08:07:31;9.07;;;5.97;;
11111;SDS011;5609;49.466;8.468;2024-03-25T08:09:58;9.23;;;5.60;;
11111;SDS011;5609;49.466;8.468;2024-03-25T08:12:23;8.27;;;5.27;;
11111;SDS011;5609;49.466;8.468;2024-03-25T08:14:50;8.67;;;5.30;;
11111;SDS011;5609;49.466;8.468;2024-03-25T08:17:17;7.53;;;4.97;;
11111;SDS011;5609;49.466;8.468;2024-03-25T08:19:44;8.53;;;4.90;;
11111;SDS011;5609;49.466;8.468;2024-03-25T08:22:09;8.10;;;5.10;;
11111;SDS011;5609;49.466;8.468;2024-03-25T08:24:36;7.93;;;5.10;;
11111;SDS011;5609;49.466;8.468;2024-03-25T08:27:02;8.17;;;4.70;;
11111;SDS011;5609;49.466;8.468;2024-03-25T08:29:28;8.60;;;4.57;;
11111;SDS011;5609;49.466;8.468;2024-03-25T08:31:54;7.67;;;4.57;;
11111;SDS011;5609;49.466;8.468;2024-03-25T08:34:20;5.53;;;4.10;;
11111;SDS011;5609;49.466;8.468;2024-03-25T08:36:45;7.60;;;4.13;;
11111;SDS011;5609;49.466;8.468;2024-03-25T08:39:11;6.10;;;3.70;;
11111;SDS011;5609;49.466;8.468;2024-03-25T08:41:38;6.77;;;3.67;;
11111;SDS011;5609;49.466;8.468;2024-03-25T08:44:04;7.77;;;3.90;;
11111;SDS011;5609;49.466;8.468;2024-03-25T08:46:34;7.70;;;2.63;;
11111;SDS011;5609;49.466;8.468;2024-03-25T08:49:01;5.80;;;2.67;;
11111;SDS011;5609;49.466;8.468;2024-03-25T08:51:27;5.57;;;3.13;;
11111;SDS011;5609;49.466;8.468;2024-03-25T08:53:52;7.90;;;2.87;;
11111;SDS011;5609;49.466;8.468;2024-03-25T08:56:18;6.10;;;3.00;;
11111;SDS011;5609;49.466;8.468;2024-03-25T08:58:48;4.67;;;2.00;;
11111;SDS011;5609;49.466;8.468;2024-03-25T09:01:15;3.50;;;2.00;;
11111;SDS011;5609;49.466;8.468;2024-03-25T09:03:41;5.10;;;2.57;;
11111;SDS011;5609;49.466;8.468;2024-03-25T09:06:07;5.63;;;2.60;;
11111;SDS011;5609;49.466;8.468;2024-03-25T09:08:34;6.97;;;3.20;;
11111;SDS011;5609;49.466;8.468;2024-03-25T09:11:00;4.97;;;2.93;;
11111;SDS011;5609;49.466;8.468;2024-03-25T09:13:29;7.23;;;3.10;;
11111;SDS011;5609;49.466;8.468;2024-03-25T09:15:57;5.30;;;2.90;;
11111;SDS011;5609;49.466;8.468;2024-03-25T09:18:23;4.97;;;2.83;;
11111;SDS011;5609;49.466;8.468;2024-03-25T09:20:50;4.47;;;2.67;;
11111;SDS011;5609;49.466;8.468;2024-03-25T09:23:16;5.20;;;2.70;;
11111;SDS011;5609;49.466;8.468;2024-03-25T09:25:51;5.27;;;2.70;;
11111;SDS011;5609;49.466;8.468;2024-03-25T09:28:17;4.23;;;2.30;;
11111;SDS011;5609;49.466;8.468;2024-03-25T09:30:43;4.13;;;2.40;;
11111;SDS011;5609;49.466;8.468;2024-03-25T09:33:11;5.33;;;2.67;;
11111;SDS011;5609;49.466;8.468;2024-03-25T09:35:37;4.97;;;2.40;;
11111;SDS011;5609;49.466;8.468;2024-03-25T09:38:06;5.40;;;2.67;;
11111;SDS011;5609;49.466;8.468;2024-03-25T09:40:33;4.67;;;2.60;;
11111;SDS011;5609;49.466;8.468;2024-03-25T09:43:01;4.90;;;2.40;;
11111;SDS011;5609;49.466;8.468;2024-03-25T09:45:29;3.83;;;2.10;;
11111;SDS011;5609;49.466;8.468;2024-03-25T09:47:56;4.63;;;2.20;;
11111;SDS011;5609;49.466;8.468;2024-03-25T09:50:25;4.07;;;2.27;;
11111;SDS011;5609;49.466;8.468;2024-03-25T09:52:51;3.70;;;2.07;;
11111;SDS011;5609;49.466;8.468;2024-03-25T09:55:17;4.60;;;2.50;;
11111;SDS011;5609;49.466;8.468;2024-03-25T09:57:44;4.10;;;2.60;;
11111;SDS011;5609;49.466;8.468;2024-03-25T10:00:10;4.67;;;2.07;;
11111;SDS011;5609;49.466;8.468;2024-03-25T10:02:38;5.00;;;2.40;;
11111;SDS011;5609;49.466;8.468;2024-03-25T10:05:05;5.87;;;2.30;;
11111;SDS011;5609;49.466;8.468;2024-03-25T10:07:34;4.57;;;2.50;;
11111;SDS011;5609;49.466;8.468;2024-03-25T10:10:02;4.57;;;2.17;;
11111;SDS011;5609;49.466;8.468;2024-03-25T10:12:29;4.87;;;2.43;;
11111;SDS011;5609;49.466;8.468;2024-03-25T10:14:55;5.80;;;2.30;;
11111;SDS011;5609;49.466;8.468;2024-03-25T10:17:21;6.37;;;2.40;;
11111;SDS011;5609;49.466;8.468;2024-03-25T10:19:47;4.73;;;2.40;;
11111;SDS011;5609;49.466;8.468;2024-03-25T10:22:14;4.53;;;2.47;;
11111;SDS011;5609;49.466;8.468;2024-03-25T10:24:42;4.77;;;2.53;;
11111;SDS011;5609;49.466;8.468;2024-03-25T10:27:09;5.23;;;2.50;;
11111;SDS011;5609;49.466;8.468;2024-03-25T10:29:36;5.43;;;2.57;;
11111;SDS011;5609;49.466;8.468;2024-03-25T10:32:02;5.00;;;2.53;;
11111;SDS011;5609;49.466;8.468;2024-03-25T10:34:28;6.73;;;2.63;;
11111;SDS011;5609;49.466;8.468;2024-03-25T10:36:56;5.33;;;2.70;;
11111;SDS011;5609;49.466;8.468;2024-03-25T10:39:24;4.17;;;2.80;;
11111;SDS011;5609;49.466;8.468;2024-03-25T10:41:53;5.10;;;2.60;;
11111;SDS011;5609;49.466;8.468;2024-03-25T10:44:20;6.80;;;2.70;;
11111;SDS011;5609;49.466;8.468;2024-03-25T10:46:47;5.70;;;2.50;;
11111;SDS011;5609;49.466;8.468;2024-03-25T10:49:15;5.50;;;2.70;;
11111;SDS011;5609;49.466;8.468;2024-03-25T10:51:42;6.70;;;2.50;;
11111;SDS011;5609;49.466;8.468;2024-03-25T10:54:09;5.07;;;2.80;;
11111;SDS011;5609;49.466;8.468;2024-03-25T10:56:36;4.67;;;2.70;;
11111;SDS011;5609;49.466;8.468;2024-03-25T10:59:04;4.43;;;2.50;;
11111;SDS011;5609;49.466;8.468;2024-03-25T11:01:32;3.90;;;2.30;;
11111;SDS011;5609;49.466;8.468;2024-03-25T11:03:59;4.33;;;2.37;;
11111;SDS011;5609;49.466;8.468;2024-03-25T11:06:25;4.30;;;2.60;;
11111;SDS011;5609;49.466;8.468;2024-03-25T11:08:55;4.30;;;2.50;;
11111;SDS011;5609;49.466;8.468;2024-03-25T11:11:22;4.67;;;2.37;;
11111;SDS011;5609;49.466;8.468;2024-03-25T11:13:48;4.40;;;2.70;;
11111;SDS011;5609;49.466;8.468;2024-03-25T11:16:25;4.40;;;2.40;;
11111;SDS011;5609;49.466;8.468;2024-03-25T11:18:51;3.90;;;2.37;;
11111;SDS011;5609;49.466;8.468;2024-03-25T11:21:23;3.63;;;2.27;;
11111;SDS011;5609;49.466;8.468;2024-03-25T11:23:50;4.00;;;2.53;;
11111;SDS011;5609;49.466;8.468;2024-03-25T11:26:18;4.10;;;2.50;;
11111;SDS011;5609;49.466;8.468;2024-03-25T11:28:48;3.83;;;2.40;;
11111;SDS011;5609;49.466;8.468;2024-03-25T11:31:15;6.23;;;2.63;;
11111;SDS011;5609;49.466;8.468;2024-03-25T11:33:42;4.10;;;2.43;;
11111;SDS011;5609;49.466;8.468;2024-03-25T11:36:09;5.43;;;2.50;;
11111;SDS011;5609;49.466;8.468;2024-03-25T11:38:35;3.77;;;2.27;;
11111;SDS011;5609;49.466;8.468;2024-03-25T11:41:01;4.77;;;2.50;;
11111;SDS011;5609;49.466;8.468;2024-03-25T11:43:28;3.60;;;2.27;;
11111;SDS011;5609;49.466;8.468;2024-03-25T11:45:54;3.77;;;2.33;;
11111;SDS011;5609;49.466;8.468;2024-03-25T11:48:22;4.60;;;2.20;;
11111;SDS011;5609;49.466;8.468;2024-03-25T11:50:50;4.87;;;2.30;;
11111;SDS011;5609;49.466;8.468;2024-03-25T11:53:16;5.67;;;2.20;;
11111;SDS011;5609;49.466;8.468;2024-03-25T11:55:45;4.67;;;2.27;;
11111;SDS011;5609;49.466;8.468;2024-03-25T11:58:12;4.43;;;2.33;;
11111;SDS011;5609;49.466;8.468;2024-03-25T12:00:42;3.67;;;2.20;;
11111;SDS011;5609;49.466;8.468;2024-03-25T12:03:09;4.47;;;2.60;;
11111;SDS011;5609;49.466;8.468;2024-03-25T12:05:36;4.37;;;2.30;;
11111;SDS011;5609;49.466;8.468;2024-03-25T12:08:03;3.00;;;2.23;;
11111;SDS011;5609;49.466;8.468;2024-03-25T12:10:30;3.23;;;2.10;;
11111;SDS011;5609;49.466;8.468;2024-03-25T12:13:15;2.80;;;2.10;;
11111;SDS011;5609;49.466;8.468;2024-03-25T12:15:41;5.67;;;2.20;;
11111;SDS011;5609;49.466;8.468;2024-03-25T12:18:08;6.60;;;2.13;;
11111;SDS011;5609;49.466;8.468;2024-03-25T12:20:48;3.20;;;2.40;;
11111;SDS011;5609;49.466;8.468;2024-03-25T12:23:14;4.43;;;2.20;;
11111;SDS011;5609;49.466;8.468;2024-03-25T12:25:41;4.27;;;2.10;;
11111;SDS011;5609;49.466;8.468;2024-03-25T12:28:10;4.23;;;2.37;;
11111;SDS011;5609;49.466;8.468;2024-03-25T12:30:40;3.90;;;2.00;;
11111;SDS011;5609;49.466;8.468;2024-03-25T12:33:18;2.67;;;2.00;;
11111;SDS011;5609;49.466;8.468;2024-03-25T12:35:45;3.63;;;1.93;;
11111;SDS011;5609;49.466;8.468;2024-03-25T12:38:22;3.43;;;2.13;;
11111;SDS011;5609;49.466;8.468;2024-03-25T12:40:49;3.10;;;1.90;;
11111;SDS011;5609;49.466;8.468;2024-03-25T12:43:15;3.20;;;1.90;;
11111;SDS011;5609;49.466;8.468;2024-03-25T12:45:43;3.63;;;2.10;;
11111;SDS011;5609;49.466;8.468;2024-03-25T12:48:10;2.77;;;1.70;;
11111;SDS011;5609;49.466;8.468;2024-03-25T12:50:36;3.00;;;1.80;;
11111;SDS011;5609;49.466;8.468;2024-03-25T12:53:02;2.57;;;1.60;;
11111;SDS011;5609;49.466;8.468;2024-03-25T12:55:31;3.33;;;1.80;;
11111;SDS011;5609;49.466;8.468;2024-03-25T12:57:57;4.03;;;1.93;;
11111;SDS011;5609;49.466;8.468;2024-03-25T13:00:24;4.20;;;1.77;;
11111;SDS011;5609;49.466;8.468;2024-03-25T13:02:50;2.83;;;1.70;;
11111;SDS011;5609;49.466;8.468;2024-03-25T13:05:16;3.20;;;2.10;;
11111;SDS011;5609;49.466;8.468;2024-03-25T13:07:42;4.50;;;1.83;;
11111;SDS011;5609;49.466;8.468;2024-03-25T13:10:09;2.77;;;1.90;;
11111;SDS011;5609;49.466;8.468;2024-03-25T13:12:36;5.67;;;2.00;;
11111;SDS011;5609;49.466;8.468;2024-03-25T13:17:42;2.37;;;1.70;;
11111;SDS011;5609;49.466;8.468;2024-03-25T13:20:09;3.17;;;1.73;;
11111;SDS011;5609;49.466;8.468;2024-03-25T13:22:35;3.90;;;2.00;;
11111;SDS011;5609;49.466;8.468;2024-03-25T13:25:01;2.97;;;1.70;;
11111;SDS011;5609;49.466;8.468;2024-03-25T13:27:27;4.60;;;1.70;;
11111;SDS011;5609;49.466;8.468;2024-03-25T13:29:55;2.23;;;1.67;;
11111;SDS011;5609;49.466;8.468;2024-03-25T13:32:21;3.60;;;1.50;;
11111;SDS011;5609;49.466;8.468;2024-03-25T13:34:47;3.47;;;1.90;;
11111;SDS011;5609;49.466;8.468;2024-03-25T13:37:13;4.40;;;2.00;;
11111;SDS011;5609;49.466;8.468;2024-03-25T13:39:39;3.17;;;1.60;;
11111;SDS011;5609;49.466;8.468;2024-03-25T13:42:06;2.53;;;1.67;;
11111;SDS011;5609;49.466;8.468;2024-03-25T13:44:32;2.93;;;1.63;;
11111;SDS011;5609;49.466;8.468;2024-03-25T13:46:59;3.20;;;1.50;;
11111;SDS011;5609;49.466;8.468;2024-03-25T13:49:25;2.43;;;1.47;;
11111;SDS011;5609;49.466;8.468;2024-03-25T13:51:56;2.83;;;1.53;;
11111;SDS011;5609;49.466;8.468;2024-03-25T13:54:23;1.97;;;1.20;;
11111;SDS011;5609;49.466;8.468;2024-03-25T13:56:49;1.97;;;1.27;;
11111;SDS011;5609;49.466;8.468;2024-03-25T13:59:15;1.90;;;1.40;;
11111;SDS011;5609;49.466;8.468;2024-03-25T14:01:41;2.70;;;1.43;;
11111;SDS011;5609;49.466;8.468;2024-03-25T14:04:09;2.33;;;1.20;;
11111;SDS011;5609;49.466;8.468;2024-03-25T14:06:35;2.20;;;1.30;;
11111;SDS011;5609;49.466;8.468;2024-03-25T14:09:01;2.10;;;1.50;;
11111;SDS011;5609;49.466;8.468;2024-03-25T14:11:27;3.07;;;1.47;;
11111;SDS011;5609;49.466;8.468;2024-03-25T14:13:53;2.50;;;1.40;;
11111;SDS011;5609;49.466;8.468;2024-03-25T14:16:19;2.40;;;1.50;;
11111;SDS011;5609;49.466;8.468;2024-03-25T14:18:46;2.83;;;1.40;;
11111;SDS011;5609;49.466;8.468;2024-03-25T14:21:13;3.63;;;1.73;;
11111;SDS011;5609;49.466;8.468;2024-03-25T14:23:39;2.93;;;1.70;;
11111;SDS011;5609;49.466;8.468;2024-03-25T14:26:05;1.80;;;1.47;;
11111;SDS011;5609;49.466;8.468;2024-03-25T14:28:31;2.87;;;1.67;;
11111;SDS011;5609;49.466;8.468;2024-03-25T14:30:57;3.73;;;2.10;;
11111;SDS011;5609;49.466;8.468;2024-03-25T14:33:24;3.77;;;1.70;;
11111;SDS011;5609;49.466;8.468;2024-03-25T14:35:50;3.07;;;1.53;;
11111;SDS011;5609;49.466;8.468;2024-03-25T14:38:17;2.73;;;1.30;;
11111;SDS011;5609;49.466;8.468;2024-03-25T14:40:43;2.53;;;1.40;;
11111;SDS011;5609;49.466;8.468;2024-03-25T14:43:09;4.07;;;1.80;;
11111;SDS011;5609;49.466;8.468;2024-03-25T14:45:35;2.33;;;1.50;;
11111;SDS011;5609;49.466;8.468;2024-03-25T14:48:02;1.80;;;1.30;;
11111;SDS011;5609;49.466;8.468;2024-03-25T14:50:28;3.17;;;1.80;;
11111;SDS011;5609;49.466;8.468;2024-03-25T14:52:54;3.07;;;1.53;;
11111;SDS011;5609;49.466;8.468;2024-03-25T14:55:21;2.57;;;1.53;;
11111;SDS011;5609;49.466;8.468;2024-03-25T14:57:47;2.00;;;1.60;;
11111;SDS011;5609;49.466;8.468;2024-03-25T15:00:13;3.00;;;1.80;;
11111;SDS011;5609;49.466;8.468;2024-03-25T15:02:39;2.50;;;1.40;;
11111;SDS011;5609;49.466;8.468;2024-03-25T15:05:05;2.70;;;1.60;;